Paradise, Indiana
Current Conditions -  °F | °C
As of 1:54 AM on Thursday 27 Nov 2014 (Local Time) from KEVV Reporting Station
Light Snow Light Snow  
Wind Chill: 25°   Ceiling: 900
Heat Index: 33°   Visibility: 3mi
Dew Point: 30°   Wind: 9mph
Humidity: 89%   Direction: 340°NNW
Pressure: 30.19"   Gusts: NA
Location:  37.9629°N, 87.3632°W
Report Text: KEVV 270754Z AUTO 34008KT 3SM -SN BR OVC009 01/M01 A3019 RMK AO2 SLP225 P0001 T00061011
Loading
Personal Weather Stations






























Interactive Weather Map New forecast layout! Learn more

10-Day Weather Forecast

Advertisements
Track Severe Weather on mobile